Time;durP1;ratioP1;P1;durP2;ratioP2;P2;SDS_P1;SDS_P2;PMS_P1;PMS_P2;Temp;Humidity;BMP_temperature;BMP_pressure;BME280_temperature;BME280_humidity;BME280_pressure;Samples;Min_cycle;Max_cycle;Signal;HPM_P1;HPM_P2
2021/06/23 00:01:42;;;;;;;0.20;0.20;;;;;;;;;;5093580;28;20412;-63
2021/06/23 00:04:08;;;;;;;0.20;0.20;;;;;;;;;;5093685;28;20385;-63
2021/06/23 00:06:34;;;;;;;0.30;0.30;;;;;;;;;;5093453;28;20416;-64
2021/06/23 00:09:00;;;;;;;0.20;0.20;;;;;;;;;;5090479;28;20420;-63
2021/06/23 00:11:31;;;;;;;0.20;0.20;;;;;;;;;;5093571;28;20412;-63
2021/06/23 00:13:57;;;;;;;0.20;0.20;;;;;;;;;;5093429;28;20416;-63
2021/06/23 00:16:23;;;;;;;0.20;0.20;;;;;;;;;;5093254;28;20491;-63
2021/06/23 00:18:49;;;;;;;0.20;0.20;;;;;;;;;;5091773;28;20415;-63
2021/06/23 00:21:15;;;;;;;0.20;0.20;;;;;;;;;;5091876;28;20458;-63
2021/06/23 00:23:41;;;;;;;0.30;0.30;;;;;;;;;;5093154;28;20431;-63
2021/06/23 00:26:07;;;;;;;0.20;0.20;;;;;;;;;;5093075;28;20408;-63
2021/06/23 00:28:33;;;;;;;0.20;0.20;;;;;;;;;;5092886;28;20757;-63
2021/06/23 00:30:59;;;;;;;0.20;0.20;;;;;;;;;;5090220;28;20405;-63
2021/06/23 00:33:29;;;;;;;0.20;0.20;;;;;;;;;;5092957;28;20432;-63
2021/06/23 00:35:55;;;;;;;0.20;0.20;;;;;;;;;;5091763;28;20445;-63
2021/06/23 00:38:21;;;;;;;0.20;0.20;;;;;;;;;;5092852;28;20761;-63
2021/06/23 00:40:47;;;;;;;0.20;0.20;;;;;;;;;;5091653;28;20383;-63
2021/06/23 00:43:14;;;;;;;0.20;0.20;;;;;;;;;;5092748;28;20472;-64
2021/06/23 00:45:40;;;;;;;0.30;0.30;;;;;;;;;;5090040;28;20792;-64
2021/06/23 00:48:10;;;;;;;0.20;0.20;;;;;;;;;;5092516;28;20451;-63
2021/06/23 00:50:39;;;;;;;0.20;0.20;;;;;;;;;;5092728;28;20466;-64
2021/06/23 00:53:05;;;;;;;0.20;0.20;;;;;;;;;;5091950;28;20956;-64
2021/06/23 00:55:31;;;;;;;0.20;0.20;;;;;;;;;;5092693;28;20459;-64
2021/06/23 00:57:57;;;;;;;0.20;0.20;;;;;;;;;;5092737;28;20938;-64
2021/06/23 01:00:25;;;;;;;0.20;0.20;;;;;;;;;;5092298;28;20492;-64
2021/06/23 01:02:51;;;;;;;0.20;0.20;;;;;;;;;;5092342;28;20428;-64
2021/06/23 01:05:17;;;;;;;0.20;0.20;;;;;;;;;;5092551;28;20411;-63
2021/06/23 01:07:44;;;;;;;0.20;0.20;;;;;;;;;;5092322;28;20408;-64
2021/06/23 01:10:10;;;;;;;0.20;0.20;;;;;;;;;;5092168;28;20411;-63
2021/06/23 01:12:56;;;;;;;0.20;0.20;;;;;;;;;;5092143;28;20977;-63
2021/06/23 01:15:22;;;;;;;0.20;0.20;;;;;;;;;;5089620;28;20452;-63
2021/06/23 01:17:50;;;;;;;0.20;0.20;;;;;;;;;;5073721;28;20413;-63
2021/06/23 01:20:16;;;;;;;0.20;0.20;;;;;;;;;;5091799;28;20504;-63
2021/06/23 01:22:43;;;;;;;0.20;0.20;;;;;;;;;;5092028;28;20406;-63
2021/06/23 01:25:11;;;;;;;0.20;0.20;;;;;;;;;;5093134;28;20412;-63
2021/06/23 01:27:38;;;;;;;0.20;0.20;;;;;;;;;;5092511;28;20409;-63
2021/06/23 01:30:04;;;;;;;0.20;0.20;;;;;;;;;;5091942;28;20408;-63
2021/06/23 01:32:31;;;;;;;0.20;0.20;;;;;;;;;;5092293;28;20424;-63
2021/06/23 01:34:57;;;;;;;0.20;0.20;;;;;;;;;;5091768;28;20452;-63
2021/06/23 01:37:23;;;;;;;0.20;0.20;;;;;;;;;;5091734;28;20488;-63
2021/06/23 01:39:49;;;;;;;0.20;0.20;;;;;;;;;;5091983;28;20375;-63
2021/06/23 01:42:15;;;;;;;0.20;0.20;;;;;;;;;;5092164;28;20473;-63
2021/06/23 01:44:41;;;;;;;0.20;0.20;;;;;;;;;;5092057;28;20439;-63
2021/06/23 01:47:07;;;;;;;0.20;0.20;;;;;;;;;;5092102;28;20435;-63
2021/06/23 01:49:33;;;;;;;0.20;0.20;;;;;;;;;;5091743;28;20946;-63
2021/06/23 01:52:00;;;;;;;0.20;0.20;;;;;;;;;;5091837;28;20515;-63
2021/06/23 01:54:26;;;;;;;0.20;0.20;;;;;;;;;;5090784;28;20920;-63
2021/06/23 01:56:52;;;;;;;0.20;0.20;;;;;;;;;;5091821;28;20474;-63
2021/06/23 01:59:18;;;;;;;0.20;0.20;;;;;;;;;;5091048;28;20428;-63
2021/06/23 02:02:06;;;;;;;0.20;0.20;;;;;;;;;;5091643;28;20407;-63
2021/06/23 02:04:32;;;;;;;0.20;0.20;;;;;;;;;;5091346;28;20400;-62
2021/06/23 02:07:16;;;;;;;0.20;0.20;;;;;;;;;;5091574;28;20934;-63
2021/06/23 02:10:01;;;;;;;0.20;0.20;;;;;;;;;;5091606;28;20824;-63
2021/06/23 02:12:27;;;;;;;0.20;0.20;;;;;;;;;;5090200;28;20424;-63
2021/06/23 02:15:00;;;;;;;0.20;0.20;;;;;;;;;;5091657;28;20413;-63
2021/06/23 02:17:30;;;;;;;0.30;0.20;;;;;;;;;;5091722;28;20400;-63
2021/06/23 02:19:57;;;;;;;0.30;0.20;;;;;;;;;;5091385;28;20404;-63
2021/06/23 02:22:24;;;;;;;0.30;0.20;;;;;;;;;;5091583;28;20477;-63
2021/06/23 02:24:52;;;;;;;0.30;0.30;;;;;;;;;;5091618;28;20412;-63
2021/06/23 02:27:18;;;;;;;0.30;0.20;;;;;;;;;;5091352;28;20400;-63
2021/06/23 02:29:45;;;;;;;0.30;0.20;;;;;;;;;;5091279;28;20436;-63
2021/06/23 02:32:12;;;;;;;0.30;0.20;;;;;;;;;;5091477;28;20424;-63
2021/06/23 02:34:39;;;;;;;0.20;0.20;;;;;;;;;;5091364;28;20405;-63
2021/06/23 02:37:05;;;;;;;0.30;0.20;;;;;;;;;;5091464;28;20440;-63
2021/06/23 02:39:31;;;;;;;0.30;0.20;;;;;;;;;;5091178;28;20439;-63
2021/06/23 02:41:57;;;;;;;0.20;0.20;;;;;;;;;;5091353;28;20486;-63
2021/06/23 02:44:25;;;;;;;0.30;0.30;;;;;;;;;;5091465;28;20415;-63
2021/06/23 02:46:51;;;;;;;0.30;0.30;;;;;;;;;;5091432;28;20768;-63
2021/06/23 02:49:18;;;;;;;0.30;0.30;;;;;;;;;;5091121;28;20512;-63
2021/06/23 02:51:45;;;;;;;0.30;0.20;;;;;;;;;;5091375;28;20412;-64
2021/06/23 02:54:12;;;;;;;0.20;0.20;;;;;;;;;;5091187;28;20443;-63
2021/06/23 02:56:38;;;;;;;0.20;0.20;;;;;;;;;;5091183;28;20467;-64
2021/06/23 02:59:05;;;;;;;0.20;0.20;;;;;;;;;;5089825;28;20424;-64
2021/06/23 03:01:31;;;;;;;0.30;0.20;;;;;;;;;;5091332;28;20486;-64
2021/06/23 03:03:57;;;;;;;0.27;0.20;;;;;;;;;;5091269;28;20770;-64
2021/06/23 03:06:24;;;;;;;0.20;0.20;;;;;;;;;;5091164;28;20409;-64
2021/06/23 03:08:50;;;;;;;0.30;0.20;;;;;;;;;;5090950;28;20802;-64
2021/06/23 03:11:16;;;;;;;0.30;0.20;;;;;;;;;;5091238;28;20408;-64
2021/06/23 03:13:42;;;;;;;0.30;0.20;;;;;;;;;;5090969;28;20464;-64
2021/06/23 03:16:08;;;;;;;0.20;0.20;;;;;;;;;;5091646;28;20433;-64
2021/06/23 03:18:34;;;;;;;0.20;0.20;;;;;;;;;;5094554;28;20405;-64
2021/06/23 03:21:01;;;;;;;0.20;0.20;;;;;;;;;;5094806;28;20371;-64
2021/06/23 03:23:27;;;;;;;0.20;0.20;;;;;;;;;;5094636;28;20867;-64
2021/06/23 03:25:53;;;;;;;0.20;0.20;;;;;;;;;;5094743;28;20422;-64
2021/06/23 03:28:19;;;;;;;0.20;0.20;;;;;;;;;;5094587;28;20412;-64
2021/06/23 03:30:45;;;;;;;0.20;0.20;;;;;;;;;;5094429;28;20888;-63
2021/06/23 03:33:11;;;;;;;0.20;0.20;;;;;;;;;;5094435;28;20952;-64
2021/06/23 03:35:37;;;;;;;0.20;0.20;;;;;;;;;;5094445;28;20455;-64
2021/06/23 03:38:03;;;;;;;0.30;0.20;;;;;;;;;;5094329;28;20408;-64
2021/06/23 03:40:29;;;;;;;0.30;0.20;;;;;;;;;;5093848;28;20423;-59
2021/06/23 03:42:56;;;;;;;0.30;0.20;;;;;;;;;;5094415;28;20424;-64
2021/06/23 03:45:22;;;;;;;0.30;0.20;;;;;;;;;;5094356;28;20407;-64
2021/06/23 03:47:48;;;;;;;0.30;0.20;;;;;;;;;;5094331;28;20401;-64
2021/06/23 03:50:16;;;;;;;0.30;0.20;;;;;;;;;;5093988;28;20380;-63
2021/06/23 03:52:43;;;;;;;0.30;0.20;;;;;;;;;;5094045;28;20811;-63
2021/06/23 03:55:19;;;;;;;0.30;0.20;;;;;;;;;;5094323;28;20460;-63
2021/06/23 03:57:46;;;;;;;0.20;0.20;;;;;;;;;;5094194;28;20461;-63
2021/06/23 04:00:12;;;;;;;0.30;0.20;;;;;;;;;;5093901;28;20887;-63
2021/06/23 04:02:38;;;;;;;0.20;0.20;;;;;;;;;;5093926;28;20482;-63
2021/06/23 04:05:04;;;;;;;0.20;0.20;;;;;;;;;;5093979;28;20412;-63
2021/06/23 04:07:30;;;;;;;0.30;0.20;;;;;;;;;;5093849;28;21124;-63
2021/06/23 04:09:56;;;;;;;0.20;0.20;;;;;;;;;;5093783;28;20258;-63
2021/06/23 04:12:22;;;;;;;0.20;0.20;;;;;;;;;;5093688;28;20463;-63
2021/06/23 04:14:48;;;;;;;0.30;0.20;;;;;;;;;;5093782;28;20431;-63
2021/06/23 04:17:14;;;;;;;0.30;0.20;;;;;;;;;;5093611;28;20401;-63
2021/06/23 04:19:40;;;;;;;0.30;0.20;;;;;;;;;;5093403;28;20499;-63
2021/06/23 04:22:06;;;;;;;0.30;0.20;;;;;;;;;;5093678;28;20946;-63
2021/06/23 04:24:32;;;;;;;0.30;0.20;;;;;;;;;;5093782;28;20378;-63
2021/06/23 04:26:58;;;;;;;0.30;0.20;;;;;;;;;;5093653;28;20408;-63
2021/06/23 04:29:24;;;;;;;0.30;0.20;;;;;;;;;;5092292;28;20416;-63
2021/06/23 04:31:50;;;;;;;0.30;0.20;;;;;;;;;;5093322;28;20420;-63
2021/06/23 04:34:16;;;;;;;0.30;0.20;;;;;;;;;;5093281;28;20382;-63
2021/06/23 04:36:42;;;;;;;0.30;0.20;;;;;;;;;;5093348;28;20546;-63
2021/06/23 04:39:08;;;;;;;0.30;0.20;;;;;;;;;;5093269;28;20451;-63
2021/06/23 04:41:34;;;;;;;0.30;0.20;;;;;;;;;;5093399;28;20436;-63
2021/06/23 04:44:00;;;;;;;0.30;0.20;;;;;;;;;;5093229;28;20401;-63
2021/06/23 04:46:28;;;;;;;0.30;0.20;;;;;;;;;;5092585;28;20406;-63
2021/06/23 04:48:54;;;;;;;0.20;0.20;;;;;;;;;;5092572;28;20408;-63
2021/06/23 04:51:20;;;;;;;0.20;0.20;;;;;;;;;;5093057;28;20383;-62
2021/06/23 04:53:46;;;;;;;0.20;0.20;;;;;;;;;;5093024;28;20441;-63
2021/06/23 04:56:12;;;;;;;0.30;0.20;;;;;;;;;;5093022;28;20858;-63
2021/06/23 04:58:38;;;;;;;0.20;0.20;;;;;;;;;;5092712;28;20408;-63
2021/06/23 05:01:04;;;;;;;0.20;0.20;;;;;;;;;;5092881;28;20740;-63
2021/06/23 05:03:30;;;;;;;0.20;0.20;;;;;;;;;;5092837;28;20421;-63
2021/06/23 05:05:57;;;;;;;0.30;0.20;;;;;;;;;;5093005;28;20929;-63
2021/06/23 05:08:24;;;;;;;0.27;0.20;;;;;;;;;;5092941;28;20939;-63
2021/06/23 05:10:50;;;;;;;0.30;0.20;;;;;;;;;;5092615;28;20491;-63
2021/06/23 05:13:16;;;;;;;0.30;0.20;;;;;;;;;;5092681;28;20517;-63
2021/06/23 05:15:42;;;;;;;0.30;0.20;;;;;;;;;;5092548;28;20518;-63
2021/06/23 05:18:08;;;;;;;0.30;0.20;;;;;;;;;;5092571;28;20389;-63
2021/06/23 05:20:34;;;;;;;0.30;0.20;;;;;;;;;;5092445;28;20405;-63
2021/06/23 05:23:00;;;;;;;0.30;0.20;;;;;;;;;;5091209;28;20444;-63
2021/06/23 05:25:26;;;;;;;0.30;0.20;;;;;;;;;;5091924;28;20408;-63
2021/06/23 05:27:52;;;;;;;0.30;0.20;;;;;;;;;;5092424;28;20400;-63
2021/06/23 05:30:18;;;;;;;0.20;0.20;;;;;;;;;;5092016;28;20420;-63
2021/06/23 05:32:44;;;;;;;0.20;0.20;;;;;;;;;;5092059;28;20403;-63
2021/06/23 05:35:11;;;;;;;0.20;0.20;;;;;;;;;;5092384;28;20458;-63
2021/06/23 05:37:37;;;;;;;0.20;0.20;;;;;;;;;;5092444;28;20400;-63
2021/06/23 05:40:03;;;;;;;0.20;0.20;;;;;;;;;;5091861;28;20825;-63
2021/06/23 05:42:29;;;;;;;0.20;0.20;;;;;;;;;;5092195;28;20802;-63
2021/06/23 05:44:55;;;;;;;0.20;0.20;;;;;;;;;;5090751;28;20413;-63
2021/06/23 05:47:21;;;;;;;0.20;0.20;;;;;;;;;;5089821;28;20435;-63
2021/06/23 05:49:47;;;;;;;0.20;0.20;;;;;;;;;;5091646;28;20425;-63
2021/06/23 05:52:13;;;;;;;0.20;0.20;;;;;;;;;;5091891;28;20428;-63
2021/06/23 05:54:39;;;;;;;0.20;0.20;;;;;;;;;;5091357;28;20413;-63
2021/06/23 05:57:05;;;;;;;0.30;0.20;;;;;;;;;;5091879;28;20821;-63
2021/06/23 05:59:31;;;;;;;0.30;0.30;;;;;;;;;;5091477;28;20412;-63
2021/06/23 06:01:58;;;;;;;0.30;0.20;;;;;;;;;;5091858;28;20421;-63
2021/06/23 06:04:24;;;;;;;0.30;0.20;;;;;;;;;;5091846;28;20408;-63
2021/06/23 06:06:50;;;;;;;0.30;0.20;;;;;;;;;;5091850;28;20379;-63
2021/06/23 06:09:16;;;;;;;0.30;0.20;;;;;;;;;;5091555;28;20469;-63
2021/06/23 06:11:42;;;;;;;0.30;0.30;;;;;;;;;;5091771;28;20866;-63
2021/06/23 06:14:08;;;;;;;0.30;0.30;;;;;;;;;;5091695;28;20917;-63
2021/06/23 06:16:34;;;;;;;0.30;0.20;;;;;;;;;;5091660;28;20457;-63
2021/06/23 06:19:00;;;;;;;0.30;0.30;;;;;;;;;;5091487;28;20432;-63
2021/06/23 06:21:26;;;;;;;0.30;0.30;;;;;;;;;;5088290;28;21094;-63
2021/06/23 06:23:52;;;;;;;0.30;0.20;;;;;;;;;;5087260;28;20435;-63
2021/06/23 06:26:19;;;;;;;0.30;0.20;;;;;;;;;;5090961;28;20488;-63
2021/06/23 06:28:45;;;;;;;0.30;0.30;;;;;;;;;;5089864;28;20815;-63
2021/06/23 06:31:11;;;;;;;0.30;0.20;;;;;;;;;;5090828;28;20409;-63
2021/06/23 06:33:37;;;;;;;0.30;0.30;;;;;;;;;;5091172;28;20432;-63
2021/06/23 06:36:03;;;;;;;0.30;0.30;;;;;;;;;;5090930;28;20458;-63
2021/06/23 06:38:29;;;;;;;0.30;0.20;;;;;;;;;;5090893;28;20409;-63
2021/06/23 06:40:55;;;;;;;0.30;0.20;;;;;;;;;;5091070;28;20405;-63
2021/06/23 06:43:21;;;;;;;0.30;0.20;;;;;;;;;;5091017;28;21173;-63
2021/06/23 06:45:49;;;;;;;0.30;0.20;;;;;;;;;;5090431;28;20395;-63
2021/06/23 06:48:16;;;;;;;0.30;0.20;;;;;;;;;;5090723;28;20473;-63
2021/06/23 06:50:42;;;;;;;0.30;0.20;;;;;;;;;;5091075;28;20826;-63
2021/06/23 06:53:08;;;;;;;0.30;0.30;;;;;;;;;;5094626;28;20460;-63
2021/06/23 06:55:34;;;;;;;0.30;0.20;;;;;;;;;;5095048;28;20438;-63
2021/06/23 06:58:00;;;;;;;0.30;0.20;;;;;;;;;;5094973;28;20400;-63
2021/06/23 07:00:26;;;;;;;0.20;0.20;;;;;;;;;;5094880;28;20431;-63
2021/06/23 07:02:56;;;;;;;0.20;0.20;;;;;;;;;;5093670;28;20428;-63
2021/06/23 07:05:23;;;;;;;0.20;0.20;;;;;;;;;;5094926;28;20417;-63
2021/06/23 07:07:49;;;;;;;0.20;0.20;;;;;;;;;;5094750;28;20419;-63
2021/06/23 07:10:15;;;;;;;0.20;0.20;;;;;;;;;;5094499;28;20433;-63
2021/06/23 07:12:42;;;;;;;0.20;0.20;;;;;;;;;;5093955;28;20493;-63
2021/06/23 07:15:08;;;;;;;0.30;0.30;;;;;;;;;;5094436;28;20473;-63
2021/06/23 07:17:34;;;;;;;0.20;0.20;;;;;;;;;;5094717;28;20375;-63
2021/06/23 07:20:01;;;;;;;0.20;0.20;;;;;;;;;;5094103;28;20473;-63
2021/06/23 07:22:27;;;;;;;0.20;0.20;;;;;;;;;;5094158;28;20444;-63
2021/06/23 07:24:53;;;;;;;0.20;0.20;;;;;;;;;;5095486;28;20379;-63
2021/06/23 07:27:19;;;;;;;0.20;0.20;;;;;;;;;;5092737;28;20497;-63
2021/06/23 07:29:45;;;;;;;0.20;0.20;;;;;;;;;;5093236;28;20412;-63
2021/06/23 07:32:24;;;;;;;0.20;0.20;;;;;;;;;;5094097;28;20430;-63
2021/06/23 07:37:16;;;;;;;0.20;0.20;;;;;;;;;;5093975;28;20375;-63
2021/06/23 07:39:42;;;;;;;0.20;0.20;;;;;;;;;;5093874;28;20383;-63
2021/06/23 07:42:09;;;;;;;0.20;0.20;;;;;;;;;;5093951;28;20448;-63
2021/06/23 07:47:37;;;;;;;0.20;0.20;;;;;;;;;;5061169;28;20455;-63
2021/06/23 07:50:03;;;;;;;0.20;0.20;;;;;;;;;;5073455;28;20391;-63
2021/06/23 07:52:46;;;;;;;0.20;0.20;;;;;;;;;;5091966;28;20452;-63
2021/06/23 08:08:57;;;;;;;0.20;0.20;;;;;;;;;;5093403;28;20435;-64
2021/06/23 08:11:32;;;;;;;0.20;0.20;;;;;;;;;;5093302;28;20461;-64
2021/06/23 08:13:59;;;;;;;0.20;0.20;;;;;;;;;;5093305;28;20400;-64
2021/06/23 08:16:25;;;;;;;0.20;0.20;;;;;;;;;;5093064;28;20657;-64
2021/06/23 08:18:51;;;;;;;0.20;0.20;;;;;;;;;;5092982;28;20407;-64
2021/06/23 08:21:17;;;;;;;0.20;0.20;;;;;;;;;;5093268;28;20455;-64
2021/06/23 08:23:43;;;;;;;0.20;0.20;;;;;;;;;;5092051;28;20951;-64
2021/06/23 08:26:09;;;;;;;0.20;0.20;;;;;;;;;;5092068;28;20424;-64
2021/06/23 08:28:36;;;;;;;0.20;0.20;;;;;;;;;;5092299;28;20386;-64
2021/06/23 08:31:02;;;;;;;0.20;0.20;;;;;;;;;;5091689;28;20439;-64
2021/06/23 08:33:28;;;;;;;0.20;0.20;;;;;;;;;;5092268;28;20774;-63
2021/06/23 08:35:54;;;;;;;0.20;0.20;;;;;;;;;;5093004;28;20442;-64
2021/06/23 08:38:21;;;;;;;0.20;0.20;;;;;;;;;;5088503;28;20781;-64
2021/06/23 08:40:47;;;;;;;0.20;0.20;;;;;;;;;;5084376;28;20464;-64
2021/06/23 08:43:14;;;;;;;0.20;0.20;;;;;;;;;;5072596;28;20436;-64
2021/06/23 08:45:40;;;;;;;0.20;0.20;;;;;;;;;;5092023;28;20388;-64
2021/06/23 08:48:07;;;;;;;0.20;0.20;;;;;;;;;;5096944;28;20504;-64
2021/06/23 08:50:33;;;;;;;0.20;0.20;;;;;;;;;;5092041;28;20409;-64
2021/06/23 08:52:59;;;;;;;0.20;0.20;;;;;;;;;;5092008;28;20486;-64
2021/06/23 08:55:25;;;;;;;0.20;0.20;;;;;;;;;;5091586;28;20979;-64
2021/06/23 08:57:52;;;;;;;0.20;0.20;;;;;;;;;;5091782;28;20919;-64
2021/06/23 09:00:18;;;;;;;0.20;0.20;;;;;;;;;;5092160;28;20420;-64
2021/06/23 09:02:45;;;;;;;0.20;0.20;;;;;;;;;;5092249;28;20421;-64
2021/06/23 09:05:13;;;;;;;0.20;0.20;;;;;;;;;;5092313;28;20517;-64
2021/06/23 09:07:41;;;;;;;0.20;0.20;;;;;;;;;;5091248;28;20525;-64
2021/06/23 09:10:27;;;;;;;0.20;0.20;;;;;;;;;;5091632;28;20411;-64
2021/06/23 09:13:08;;;;;;;0.20;0.20;;;;;;;;;;5075108;28;20440;-64
2021/06/23 09:15:50;;;;;;;0.20;0.20;;;;;;;;;;5091212;28;20846;-64
2021/06/23 09:18:19;;;;;;;0.20;0.20;;;;;;;;;;5086354;28;20444;-65
2021/06/23 09:20:46;;;;;;;0.20;0.20;;;;;;;;;;5086092;28;20432;-64
2021/06/23 09:23:12;;;;;;;0.20;0.20;;;;;;;;;;5087922;28;20957;-64
2021/06/23 09:25:39;;;;;;;0.20;0.20;;;;;;;;;;5085367;28;20415;-64
2021/06/23 09:28:13;;;;;;;0.20;0.20;;;;;;;;;;5086138;28;20425;-64
2021/06/23 09:30:40;;;;;;;0.20;0.20;;;;;;;;;;5088831;28;20412;-65
2021/06/23 09:33:08;;;;;;;0.20;0.20;;;;;;;;;;5091785;28;20424;-65
2021/06/23 09:35:34;;;;;;;0.20;0.20;;;;;;;;;;5089495;28;20796;-65
2021/06/23 09:38:00;;;;;;;0.20;0.20;;;;;;;;;;5090912;28;20426;-65
2021/06/23 09:40:30;;;;;;;0.20;0.20;;;;;;;;;;5090480;28;20440;-63
2021/06/23 09:43:01;;;;;;;0.20;0.20;;;;;;;;;;5089069;28;20425;-65
2021/06/23 09:45:28;;;;;;;0.20;0.20;;;;;;;;;;5090723;28;20644;-64
2021/06/23 09:48:01;;;;;;;0.20;0.20;;;;;;;;;;5088946;28;20407;-64
2021/06/23 09:50:29;;;;;;;0.20;0.20;;;;;;;;;;5092379;28;20448;-65
2021/06/23 09:52:55;;;;;;;0.20;0.20;;;;;;;;;;5088677;28;20474;-64
2021/06/23 09:55:21;;;;;;;0.20;0.20;;;;;;;;;;5091429;28;20779;-63
2021/06/23 09:58:29;;;;;;;0.20;0.20;;;;;;;;;;5090059;28;20415;-63
2021/06/23 10:00:59;;;;;;;0.20;0.20;;;;;;;;;;5017924;28;21036;-62
2021/06/23 10:03:26;;;;;;;0.20;0.20;;;;;;;;;;5026707;28;20477;-63
2021/06/23 10:05:52;;;;;;;0.20;0.20;;;;;;;;;;5061009;28;20412;-62
2021/06/23 10:08:22;;;;;;;0.20;0.20;;;;;;;;;;5090750;28;20427;-62
2021/06/23 10:10:48;;;;;;;0.20;0.20;;;;;;;;;;5090627;28;20404;-62
2021/06/23 10:13:16;;;;;;;0.20;0.20;;;;;;;;;;5086903;28;20481;-62
2021/06/23 10:15:42;;;;;;;0.20;0.10;;;;;;;;;;5089222;28;20837;-63
2021/06/23 10:18:08;;;;;;;0.20;0.20;;;;;;;;;;5090779;28;20412;-64
2021/06/23 10:20:34;;;;;;;0.20;0.20;;;;;;;;;;5087818;28;20411;-61
2021/06/23 10:23:01;;;;;;;0.20;0.20;;;;;;;;;;5090745;28;20420;-64
2021/06/23 10:25:27;;;;;;;0.20;0.20;;;;;;;;;;5090678;28;20441;-64
2021/06/23 10:27:53;;;;;;;0.20;0.20;;;;;;;;;;5094277;28;20495;-64
2021/06/23 10:30:20;;;;;;;0.20;0.20;;;;;;;;;;5094837;28;20949;-63
2021/06/23 10:32:46;;;;;;;0.20;0.20;;;;;;;;;;5094529;28;20441;-62
2021/06/23 10:35:15;;;;;;;0.20;0.20;;;;;;;;;;5094802;28;20898;-63
2021/06/23 10:37:42;;;;;;;0.20;0.20;;;;;;;;;;5094552;28;20390;-62
2021/06/23 10:40:10;;;;;;;0.20;0.20;;;;;;;;;;5094527;28;20846;-61
2021/06/23 10:42:36;;;;;;;0.20;0.20;;;;;;;;;;5091119;28;20427;-63
2021/06/23 10:45:03;;;;;;;0.20;0.20;;;;;;;;;;5093194;28;20454;-64
2021/06/23 10:47:32;;;;;;;0.20;0.20;;;;;;;;;;5095096;28;20412;-64
2021/06/23 10:49:58;;;;;;;0.20;0.20;;;;;;;;;;5094794;28;20503;-62
2021/06/23 10:52:25;;;;;;;0.20;0.20;;;;;;;;;;5093459;28;20451;-62
2021/06/23 10:54:52;;;;;;;0.20;0.20;;;;;;;;;;5094832;28;20424;-64
2021/06/23 10:57:25;;;;;;;0.20;0.20;;;;;;;;;;5093128;28;20484;-64
2021/06/23 10:59:52;;;;;;;0.20;0.20;;;;;;;;;;5092041;28;20487;-64
2021/06/23 11:02:19;;;;;;;0.20;0.20;;;;;;;;;;5092972;28;20428;-64
2021/06/23 11:05:11;;;;;;;0.20;0.20;;;;;;;;;;5092476;28;20475;-64
2021/06/23 11:07:41;;;;;;;0.20;0.20;;;;;;;;;;5091697;28;20890;-64
2021/06/23 11:10:17;;;;;;;0.20;0.20;;;;;;;;;;5094231;28;20498;-64
2021/06/23 11:12:52;;;;;;;0.20;0.20;;;;;;;;;;5094373;28;20484;-64
2021/06/23 11:15:19;;;;;;;0.20;0.20;;;;;;;;;;5092016;28;20457;-64
2021/06/23 11:17:46;;;;;;;0.20;0.20;;;;;;;;;;5088272;28;20410;-63
2021/06/23 11:20:32;;;;;;;0.20;0.20;;;;;;;;;;5094483;28;20419;-63
2021/06/23 11:22:58;;;;;;;0.20;0.20;;;;;;;;;;5083418;28;20445;-63
2021/06/23 11:25:31;;;;;;;0.20;0.20;;;;;;;;;;5094059;28;20427;-63
2021/06/23 11:28:21;;;;;;;0.20;0.20;;;;;;;;;;5093029;28;20412;-62
2021/06/23 11:30:52;;;;;;;0.20;0.20;;;;;;;;;;5095601;28;20462;-63
2021/06/23 11:33:28;;;;;;;0.20;0.20;;;;;;;;;;5093760;28;20436;-63
2021/06/23 11:36:01;;;;;;;0.20;0.20;;;;;;;;;;5093133;28;20469;-63
2021/06/23 11:38:27;;;;;;;0.20;0.20;;;;;;;;;;5091910;28;21031;-63
2021/06/23 11:40:54;;;;;;;0.20;0.20;;;;;;;;;;5094072;28;20417;-63
2021/06/23 11:43:20;;;;;;;0.20;0.20;;;;;;;;;;5094055;28;20947;-62
2021/06/23 11:45:47;;;;;;;0.20;0.20;;;;;;;;;;5105465;28;20434;-62
2021/06/23 11:48:13;;;;;;;0.20;0.20;;;;;;;;;;5113956;28;20414;-62
2021/06/23 11:50:45;;;;;;;0.20;0.20;;;;;;;;;;5113299;28;20828;-63
2021/06/23 11:53:12;;;;;;;0.20;0.20;;;;;;;;;;5111616;28;20462;-64
2021/06/23 11:55:38;;;;;;;0.20;0.20;;;;;;;;;;5093236;28;21073;-63
2021/06/23 11:58:05;;;;;;;0.20;0.20;;;;;;;;;;5094519;28;20431;-63
2021/06/23 12:00:31;;;;;;;0.20;0.20;;;;;;;;;;5093160;28;20903;-63
2021/06/23 12:02:59;;;;;;;0.20;0.20;;;;;;;;;;5093077;28;20811;-63
2021/06/23 12:05:28;;;;;;;0.20;0.20;;;;;;;;;;5092303;28;20400;-63
2021/06/23 12:07:55;;;;;;;0.20;0.20;;;;;;;;;;5092981;28;20418;-62
2021/06/23 12:10:22;;;;;;;0.20;0.20;;;;;;;;;;5092719;28;20405;-63
2021/06/23 12:12:48;;;;;;;0.20;0.20;;;;;;;;;;5093033;28;20803;-56
2021/06/23 12:15:16;;;;;;;0.20;0.20;;;;;;;;;;5092972;28;20423;-63
2021/06/23 12:17:43;;;;;;;0.20;0.20;;;;;;;;;;5092970;28;20898;-56
2021/06/23 12:20:10;;;;;;;0.20;0.20;;;;;;;;;;5092514;28;20926;-63
2021/06/23 12:22:38;;;;;;;0.20;0.20;;;;;;;;;;5092521;28;20519;-65
2021/06/23 12:25:05;;;;;;;0.20;0.20;;;;;;;;;;5090769;28;20428;-64
2021/06/23 12:27:31;;;;;;;0.20;0.20;;;;;;;;;;5091707;28;20412;-63
2021/06/23 12:29:57;;;;;;;0.20;0.20;;;;;;;;;;5091139;28;20719;-63
2021/06/23 12:32:23;;;;;;;0.20;0.20;;;;;;;;;;5091541;28;20423;-63
2021/06/23 12:34:49;;;;;;;0.20;0.20;;;;;;;;;;5092467;28;20375;-63
2021/06/23 12:37:15;;;;;;;0.20;0.20;;;;;;;;;;5092441;28;20439;-63
2021/06/23 12:39:42;;;;;;;0.20;0.20;;;;;;;;;;5092538;28;20409;-64
2021/06/23 12:42:08;;;;;;;0.20;0.20;;;;;;;;;;5092074;28;20487;-64
2021/06/23 12:44:34;;;;;;;0.20;0.20;;;;;;;;;;5088331;28;20537;-64
2021/06/23 12:46:59;;;;;;;0.20;0.20;;;;;;;;;;5089419;28;20534;-64
2021/06/23 12:49:26;;;;;;;0.20;0.20;;;;;;;;;;5087865;28;20510;-64
2021/06/23 12:51:52;;;;;;;0.20;0.20;;;;;;;;;;5091971;28;20448;-64
2021/06/23 12:54:18;;;;;;;0.20;0.20;;;;;;;;;;5091693;28;20429;-65
2021/06/23 12:56:44;;;;;;;0.20;0.20;;;;;;;;;;5091973;28;20426;-64
2021/06/23 12:59:10;;;;;;;0.20;0.20;;;;;;;;;;5090842;28;20400;-64
2021/06/23 13:01:36;;;;;;;0.20;0.20;;;;;;;;;;5091573;28;20906;-64
2021/06/23 13:04:03;;;;;;;0.20;0.20;;;;;;;;;;5092132;28;20437;-64
2021/06/23 13:06:29;;;;;;;0.20;0.20;;;;;;;;;;5090737;28;20409;-64
2021/06/23 13:08:55;;;;;;;0.20;0.20;;;;;;;;;;5091815;28;20386;-64
2021/06/23 13:11:21;;;;;;;0.20;0.20;;;;;;;;;;5090956;28;20462;-64
2021/06/23 13:13:46;;;;;;;0.20;0.20;;;;;;;;;;5091562;28;20486;-64
2021/06/23 13:16:17;;;;;;;0.20;0.20;;;;;;;;;;5091482;28;20525;-64
2021/06/23 13:18:44;;;;;;;0.20;0.20;;;;;;;;;;5089858;28;20396;-64
2021/06/23 13:21:10;;;;;;;0.20;0.20;;;;;;;;;;5090634;28;20416;-63
2021/06/23 13:23:36;;;;;;;0.20;0.20;;;;;;;;;;5073336;28;20432;-64
2021/06/23 13:26:03;;;;;;;0.20;0.20;;;;;;;;;;5090853;28;20416;-64
2021/06/23 13:28:29;;;;;;;0.20;0.20;;;;;;;;;;5091454;28;20383;-63
2021/06/23 13:30:55;;;;;;;0.20;0.20;;;;;;;;;;5091468;28;20411;-64
2021/06/23 13:33:21;;;;;;;0.20;0.20;;;;;;;;;;5091775;28;20429;-64
2021/06/23 13:35:47;;;;;;;0.20;0.20;;;;;;;;;;5088085;28;20457;-64
2021/06/23 13:38:14;;;;;;;0.20;0.20;;;;;;;;;;5071207;28;20428;-64
2021/06/23 13:40:41;;;;;;;0.20;0.20;;;;;;;;;;5071193;28;20390;-64
2021/06/23 13:43:09;;;;;;;0.20;0.20;;;;;;;;;;5064873;28;20463;-63
2021/06/23 13:45:36;;;;;;;0.20;0.20;;;;;;;;;;5070401;28;20421;-63
2021/06/23 13:48:03;;;;;;;0.20;0.20;;;;;;;;;;5070742;28;20392;-64
2021/06/23 13:50:29;;;;;;;0.20;0.20;;;;;;;;;;5070447;28;20500;-62
2021/06/23 13:52:55;;;;;;;0.20;0.20;;;;;;;;;;5070371;28;20415;-64
2021/06/23 13:55:24;;;;;;;0.20;0.20;;;;;;;;;;5086126;28;20883;-64
2021/06/23 13:57:54;;;;;;;0.20;0.20;;;;;;;;;;5070352;28;20496;-63
2021/06/23 14:00:20;;;;;;;0.20;0.20;;;;;;;;;;5067538;28;20384;-64
2021/06/23 14:02:46;;;;;;;0.20;0.20;;;;;;;;;;5070266;28;20444;-64
2021/06/23 14:05:13;;;;;;;0.20;0.20;;;;;;;;;;5070000;28;20428;-64
2021/06/23 14:07:39;;;;;;;0.20;0.20;;;;;;;;;;5070601;28;20543;-64
2021/06/23 14:10:07;;;;;;;0.20;0.20;;;;;;;;;;5068901;28;20527;-64
2021/06/23 14:12:33;;;;;;;0.20;0.20;;;;;;;;;;5069034;28;20443;-64
2021/06/23 14:14:59;;;;;;;0.20;0.20;;;;;;;;;;5067920;28;20821;-64
2021/06/23 14:17:25;;;;;;;0.20;0.20;;;;;;;;;;5068121;28;20435;-62
2021/06/23 14:19:52;;;;;;;0.20;0.20;;;;;;;;;;5070313;28;20458;-64
2021/06/23 14:22:18;;;;;;;0.20;0.20;;;;;;;;;;5070329;28;20425;-63
2021/06/23 14:24:45;;;;;;;0.20;0.20;;;;;;;;;;5070460;28;20405;-64
2021/06/23 14:27:11;;;;;;;0.20;0.20;;;;;;;;;;5069065;28;20446;-63
2021/06/23 14:29:37;;;;;;;0.20;0.20;;;;;;;;;;5070298;28;20404;-64
2021/06/23 14:32:03;;;;;;;0.20;0.20;;;;;;;;;;5070217;28;20404;-64
2021/06/23 14:34:29;;;;;;;0.20;0.20;;;;;;;;;;5070701;28;20405;-64
2021/06/23 14:36:55;;;;;;;0.20;0.20;;;;;;;;;;5072354;22;20506;-63
2021/06/23 14:39:21;;;;;;;0.20;0.20;;;;;;;;;;5049517;28;20404;-65
2021/06/23 14:41:47;;;;;;;0.20;0.20;;;;;;;;;;5050461;28;20398;-64
2021/06/23 14:44:13;;;;;;;0.20;0.20;;;;;;;;;;5050841;28;20992;-65
2021/06/23 14:46:39;;;;;;;0.20;0.20;;;;;;;;;;5063007;28;20431;-65
2021/06/23 14:49:06;;;;;;;0.20;0.20;;;;;;;;;;5070227;28;20453;-66
2021/06/23 14:51:32;;;;;;;0.20;0.20;;;;;;;;;;5069191;28;20911;-65
2021/06/23 14:53:58;;;;;;;0.20;0.20;;;;;;;;;;5059690;28;20435;-65
2021/06/23 14:56:25;;;;;;;0.20;0.20;;;;;;;;;;5070303;28;20474;-63
2021/06/23 14:58:51;;;;;;;0.20;0.20;;;;;;;;;;5071250;28;20420;-66
2021/06/23 15:01:17;;;;;;;0.20;0.20;;;;;;;;;;5070650;28;20418;-65
2021/06/23 15:03:43;;;;;;;0.20;0.20;;;;;;;;;;5070747;28;20415;-65